Main page
METAR-TAF:

METAR-TAF

Airports :

Erbil International Airport

Erbil, Iraq

latitude: 36-14-15N, longitude: 43-57-47E, elevation: 415 m

Current weather observation

The report was made 49 minutes ago, at 10:00 UTC
Wind 4 kt from the North/Northwest
Temperature 37°C
Humidity 12%
Pressure 1011 hPa
Visibility: 8000 m
Scattered clouds at a height of 4000 ft

METAR: ORER 061000Z 34004KT 8000 SCT040 37/03 Q1011

Time: 13:49 (10:49 UTC)

Forecast

The report was made 5 hours and 49 minutes ago, at 05:00 UTC
Forecast valid from 06 at 06 UTC to 07 at 06 UTC
Wind 6 kt from the Northwest
Visibility: 8000 m
Becoming
from 06 at 11 UTC to 06 at 14 UTC
Wind 8 kt from the West
Becoming
from 06 at 20 UTC to 06 at 23 UTC
Wind 6 kt from the East/Northeast

TAF: ORER 060500Z 0606/0706 32006KT 8000 NSC BECMG 0611/0614 26008KT BECMG 0620/0623 06006KT

Weather observations and forecasts of more than 4000 airports (METAR and TAF reports).

The available stations are represented by yellow and red dots on the map.

Hover mouse over dot to see the name of the station.

Then click to see weather observations and forecasts.

To change the map : click on the green buttons with a black cross to zoom in, on the green button with a dash to zoom out, or on the green arrows for adjacent maps.


METAR-TAF: